Rago, Kansas
Current Conditions -  °F | °C
As of 6:53 PM on Saturday 20 Dec 2014 (Local Time) from KICT Reporting Station
Overcast Overcast  
Wind Chill: 37°   Ceiling: 1700
Heat Index: 44°   Visibility: 9mi
Dew Point: 36°   Wind: 14mph
Humidity: 73%   Direction: 200°SSW
Pressure: 30.11"   Gusts: NA
Location:  37.45°N, 98.08°W
Report Text: KICT 210053Z 20012KT 9SM OVC017 07/02 A3011 RMK AO2 SLP203 T00670022 $
Loading
Personal Weather Stations






























Interactive Weather Map New forecast layout! Learn more

10-Day Weather Forecast

Advertisements
Track Severe Weather on mobile